createdAt,value
2023-05-19T00:01:01.972Z,30.23
2023-05-19T00:03:31.799Z,30.38
2023-05-19T00:06:02.838Z,30.14
2023-05-19T00:08:33.675Z,30.27
2023-05-19T00:11:02.772Z,30.25
2023-05-19T00:13:30.974Z,30.19
2023-05-19T00:15:59.547Z,30.22
2023-05-19T00:18:29.863Z,30.47
2023-05-19T00:20:57.856Z,30.27
2023-05-19T00:23:25.898Z,30.13
2023-05-19T00:25:55.259Z,30.45
2023-05-19T00:28:23.336Z,30.44
2023-05-19T00:30:52.178Z,30.37
2023-05-19T00:33:20.272Z,30.38
2023-05-19T00:35:48.525Z,30.18
2023-05-19T00:38:16.573Z,30.21
2023-05-19T00:40:44.736Z,30.24
2023-05-19T00:43:14.559Z,30.29
2023-05-19T00:45:42.714Z,30.35
2023-05-19T00:48:10.814Z,30.37
2023-05-19T00:50:38.956Z,30.38
2023-05-19T00:53:07.044Z,30.36
2023-05-19T00:55:38.158Z,30.33
2023-05-19T00:58:07.395Z,30.36
2023-05-19T01:00:38.633Z,30.68
2023-05-19T01:03:11.529Z,30.54
2023-05-19T01:05:44.793Z,30.35
2023-05-19T01:08:13.271Z,30.78
2023-05-19T01:10:42.017Z,30.76
2023-05-19T01:13:10.072Z,30.55
2023-05-19T01:15:52.415Z,30.43
2023-05-19T01:18:28.220Z,30.86
2023-05-19T01:21:12.516Z,30.56
2023-05-19T01:23:49.317Z,30.46
2023-05-19T01:26:32.674Z,30.83
2023-05-19T01:29:10.020Z,30.86
2023-05-19T01:31:42.043Z,30.70
2023-05-19T01:34:11.762Z,30.84
2023-05-19T01:36:44.779Z,30.72
2023-05-19T01:39:14.991Z,30.66
2023-05-19T01:41:45.775Z,30.48
2023-05-19T01:44:14.178Z,30.80
2023-05-19T01:46:44.250Z,30.85
2023-05-19T01:49:14.723Z,30.58
2023-05-19T01:51:42.820Z,30.40
2023-05-19T01:54:10.831Z,30.82
2023-05-19T01:56:46.373Z,30.66
2023-05-19T01:59:29.644Z,30.57
2023-05-19T02:02:02.846Z,30.67
2023-05-19T02:04:39.944Z,30.72
2023-05-19T02:07:16.784Z,30.91
2023-05-19T02:09:53.105Z,30.92
2023-05-19T02:12:26.943Z,30.92
2023-05-19T02:15:04.325Z,30.50
2023-05-19T02:17:40.188Z,30.83
2023-05-19T02:20:09.863Z,30.60
2023-05-19T02:22:37.862Z,30.59
2023-05-19T02:25:06.957Z,30.80
2023-05-19T02:27:35.211Z,30.96
2023-05-19T02:30:03.769Z,30.96
2023-05-19T02:32:32.566Z,30.63
2023-05-19T02:35:02.020Z,30.92
2023-05-19T02:37:31.158Z,31.05
2023-05-19T02:39:59.647Z,30.72
2023-05-19T02:42:27.670Z,30.72
2023-05-19T02:44:55.922Z,30.85
2023-05-19T02:47:24.189Z,30.75
2023-05-19T02:49:52.212Z,30.85
2023-05-19T02:52:21.622Z,31.02
2023-05-19T02:54:49.714Z,30.90
2023-05-19T02:57:17.846Z,31.02
2023-05-19T02:59:45.872Z,30.84
2023-05-19T03:02:14.574Z,30.97
2023-05-19T03:04:43.086Z,30.98
2023-05-19T03:07:13.381Z,31.25
2023-05-19T03:09:43.147Z,31.10
2023-05-19T03:12:11.163Z,30.83
2023-05-19T03:14:39.644Z,30.98
2023-05-19T03:17:10.243Z,31.27
2023-05-19T03:19:38.563Z,30.81
2023-05-19T03:22:06.694Z,31.13
2023-05-19T03:24:36.257Z,30.84
2023-05-19T03:27:06.357Z,31.10
2023-05-19T03:29:34.620Z,30.87
2023-05-19T03:32:03.921Z,31.06
2023-05-19T03:34:32.664Z,31.02
2023-05-19T03:37:00.600Z,30.79
2023-05-19T03:39:28.621Z,30.81
2023-05-19T03:41:57.333Z,30.60
2023-05-19T03:44:26.801Z,31.10
2023-05-19T03:46:55.357Z,30.65
2023-05-19T03:49:29.138Z,30.91
2023-05-19T03:52:06.429Z,30.67
2023-05-19T03:54:46.337Z,30.55
2023-05-19T03:57:15.729Z,30.57
2023-05-19T03:59:45.128Z,30.75
2023-05-19T04:02:13.362Z,30.72
2023-05-19T04:04:41.399Z,30.99
2023-05-19T04:07:09.529Z,31.07
2023-05-19T04:09:37.728Z,31.07
2023-05-19T04:12:06.449Z,30.95
2023-05-19T04:14:34.488Z,30.92
2023-05-19T04:17:04.004Z,31.04
2023-05-19T04:19:32.166Z,31.13
2023-05-19T04:22:00.236Z,31.11
2023-05-19T04:24:28.210Z,31.13
2023-05-19T04:26:57.262Z,30.96
2023-05-19T04:29:25.301Z,31.32
2023-05-19T04:31:53.862Z,31.17
2023-05-19T04:34:23.495Z,31.13
2023-05-19T04:36:53.381Z,31.22
2023-05-19T04:39:23.244Z,31.19
2023-05-19T04:41:54.081Z,31.28
2023-05-19T04:44:22.089Z,31.13
2023-05-19T04:46:54.228Z,31.31
2023-05-19T04:49:28.580Z,31.30
2023-05-19T04:51:56.663Z,31.13
2023-05-19T04:54:29.091Z,31.43
2023-05-19T04:56:57.576Z,31.79
2023-05-19T04:59:28.679Z,32.55
2023-05-19T05:01:56.764Z,33.24
2023-05-19T05:04:28.378Z,33.78
2023-05-19T05:06:56.438Z,33.62
2023-05-19T05:09:25.897Z,33.55
2023-05-19T05:11:55.124Z,33.26
2023-05-19T05:14:23.577Z,32.97
2023-05-19T05:16:52.468Z,32.93
2023-05-19T05:19:24.779Z,32.71
2023-05-19T05:21:54.943Z,32.85
2023-05-19T05:24:23.374Z,32.73
2023-05-19T05:26:56.001Z,32.64
2023-05-19T05:29:24.367Z,32.94
2023-05-19T05:31:53.218Z,33.01
2023-05-19T05:34:21.301Z,33.04
2023-05-19T05:36:49.428Z,33.21
2023-05-19T05:39:20.005Z,32.95
2023-05-19T05:41:48.321Z,32.60
2023-05-19T05:44:16.396Z,32.55
2023-05-19T05:46:46.652Z,32.40
2023-05-19T05:49:15.828Z,32.44
2023-05-19T05:51:54.612Z,32.00
2023-05-19T05:54:32.951Z,31.95
2023-05-19T05:57:02.563Z,31.80
2023-05-19T05:59:31.009Z,31.75
2023-05-19T06:01:59.151Z,31.71
2023-05-19T06:04:27.410Z,31.85
2023-05-19T06:07:01.026Z,31.73
2023-05-19T06:09:33.940Z,31.55
2023-05-19T06:12:03.503Z,31.67
2023-05-19T06:14:36.719Z,31.49
2023-05-19T06:17:23.220Z,31.49
2023-05-19T06:19:52.809Z,31.25
2023-05-19T06:22:21.290Z,31.27
2023-05-19T06:24:50.687Z,31.10
2023-05-19T06:27:20.792Z,30.71
2023-05-19T06:29:48.991Z,30.97
2023-05-19T06:32:17.034Z,30.84
2023-05-19T06:34:45.400Z,30.56
2023-05-19T06:37:14.928Z,30.56
2023-05-19T06:39:43.109Z,30.47
2023-05-19T06:42:12.583Z,30.28
2023-05-19T06:45:08.757Z,30.27
2023-05-19T06:47:36.852Z,29.96
2023-05-19T06:50:05.479Z,29.92
2023-05-19T06:52:36.780Z,29.78
2023-05-19T06:55:05.417Z,29.90
2023-05-19T06:57:36.175Z,29.77
2023-05-19T07:00:06.892Z,29.39
2023-05-19T07:02:35.353Z,29.28
2023-05-19T07:05:05.353Z,29.52
2023-05-19T07:07:33.540Z,29.36
2023-05-19T07:10:02.334Z,29.11
2023-05-19T07:12:31.919Z,29.00
2023-05-19T07:15:01.966Z,28.88
2023-05-19T07:17:30.319Z,29.28
2023-05-19T07:19:59.651Z,29.17
2023-05-19T07:22:28.484Z,28.96
2023-05-19T07:24:57.118Z,29.27
2023-05-19T07:27:25.119Z,29.41
2023-05-19T07:29:53.566Z,29.26
2023-05-19T07:32:23.158Z,29.33
2023-05-19T07:34:51.305Z,29.41
2023-05-19T07:37:19.309Z,29.16
2023-05-19T07:39:47.471Z,29.19
2023-05-19T07:42:15.385Z,28.86
2023-05-19T07:44:43.332Z,28.93
2023-05-19T07:47:11.375Z,28.63
2023-05-19T07:49:40.822Z,28.34
2023-05-19T07:52:08.859Z,28.24
2023-05-19T07:54:36.836Z,28.29
2023-05-19T07:57:05.101Z,28.16
2023-05-19T07:59:33.009Z,27.90
2023-05-19T08:02:01.222Z,27.71
2023-05-19T08:04:29.353Z,28.05
2023-05-19T08:06:59.032Z,27.50
2023-05-19T08:09:27.086Z,27.50
2023-05-19T08:11:55.102Z,27.81
2023-05-19T08:14:23.163Z,27.28
2023-05-19T08:16:51.759Z,27.15
2023-05-19T08:19:19.848Z,27.27
2023-05-19T08:21:48.353Z,27.29
2023-05-19T08:24:17.842Z,27.07
2023-05-19T08:26:45.914Z,27.29
2023-05-19T08:29:14.062Z,26.95
2023-05-19T08:31:42.044Z,27.20
2023-05-19T08:34:10.043Z,27.00
2023-05-19T08:36:38.124Z,26.96
2023-05-19T08:39:06.604Z,27.00
2023-05-19T08:41:36.053Z,26.77
2023-05-19T08:44:04.469Z,26.64
2023-05-19T08:46:33.290Z,26.66
2023-05-19T08:49:16.730Z,26.63
2023-05-19T08:51:51.612Z,26.52
2023-05-19T08:54:20.863Z,26.54
2023-05-19T08:56:50.394Z,26.72
2023-05-19T08:59:19.405Z,26.86
2023-05-19T09:01:47.748Z,26.87
2023-05-19T09:04:17.888Z,26.86
2023-05-19T09:06:46.093Z,26.86
2023-05-19T09:09:14.203Z,26.97
2023-05-19T09:11:42.465Z,26.81
2023-05-19T09:14:11.971Z,26.56
2023-05-19T09:16:40.562Z,26.80
2023-05-19T09:19:15.423Z,26.57
2023-05-19T09:21:44.614Z,26.57
2023-05-19T09:24:12.802Z,26.74
2023-05-19T09:26:42.251Z,26.53
2023-05-19T09:29:15.153Z,26.82
2023-05-19T09:31:50.600Z,26.41
2023-05-19T09:34:19.191Z,26.62
2023-05-19T09:36:49.569Z,26.67
2023-05-19T09:39:18.222Z,26.79
2023-05-19T09:41:46.848Z,26.71
2023-05-19T09:44:24.064Z,26.88
2023-05-19T09:46:53.381Z,26.58
2023-05-19T09:49:22.837Z,26.94
2023-05-19T09:51:52.284Z,26.56
2023-05-19T09:54:21.705Z,26.59
2023-05-19T09:56:54.307Z,26.72
2023-05-19T09:59:26.203Z,26.60
2023-05-19T10:01:56.732Z,26.75
2023-05-19T10:04:26.812Z,27.06
2023-05-19T10:06:55.728Z,26.85
2023-05-19T10:09:25.857Z,26.77
2023-05-19T10:11:54.379Z,26.94
2023-05-19T10:14:26.338Z,27.08
2023-05-19T10:16:55.640Z,26.98
2023-05-19T10:19:25.349Z,27.02
2023-05-19T10:21:54.238Z,27.05
2023-05-19T10:24:22.390Z,26.98
2023-05-19T10:26:54.606Z,26.88
2023-05-19T10:29:28.458Z,27.24
2023-05-19T10:32:00.279Z,27.12
2023-05-19T10:34:50.562Z,27.14
2023-05-19T10:37:30.448Z,27.21
2023-05-19T10:39:59.480Z,27.11
2023-05-19T10:42:41.859Z,27.36
2023-05-19T10:45:18.422Z,27.04
2023-05-19T10:47:47.144Z,27.30
2023-05-19T10:50:15.313Z,27.20
2023-05-19T10:52:44.662Z,27.28
2023-05-19T10:55:15.766Z,27.33
2023-05-19T10:57:56.728Z,27.42
2023-05-19T11:00:32.693Z,27.41
2023-05-19T11:03:14.627Z,27.58
2023-05-19T11:05:45.244Z,27.59
2023-05-19T11:08:14.173Z,27.53
2023-05-19T11:10:45.991Z,27.46
2023-05-19T11:13:22.474Z,27.71
2023-05-19T11:15:53.009Z,27.85
2023-05-19T11:18:21.736Z,27.57
2023-05-19T11:20:59.060Z,27.70
2023-05-19T11:23:27.373Z,27.87
2023-05-19T11:25:55.546Z,27.72
2023-05-19T11:28:26.292Z,28.00
2023-05-19T11:30:59.171Z,27.71
2023-05-19T11:33:28.128Z,27.86
2023-05-19T11:35:59.069Z,27.70
2023-05-19T11:38:28.296Z,27.76
2023-05-19T11:40:57.452Z,27.52
2023-05-19T11:43:26.191Z,27.51
2023-05-19T11:45:56.907Z,27.52
2023-05-19T11:48:26.107Z,27.60
2023-05-19T11:50:54.371Z,27.63
2023-05-19T11:53:22.578Z,27.61
2023-05-19T11:55:51.163Z,27.34
2023-05-19T11:58:26.052Z,27.53
2023-05-19T12:00:54.161Z,27.31
2023-05-19T12:03:28.771Z,27.25
2023-05-19T12:05:57.185Z,27.27
2023-05-19T12:08:27.127Z,27.44
2023-05-19T12:10:56.308Z,27.08
2023-05-19T12:13:24.417Z,27.16
2023-05-19T12:15:53.354Z,27.13
2023-05-19T12:18:21.439Z,26.96
2023-05-19T12:20:51.033Z,26.94
2023-05-19T12:23:19.260Z,27.04
2023-05-19T12:25:47.470Z,26.97
2023-05-19T12:28:17.541Z,26.96
2023-05-19T12:30:51.703Z,26.79
2023-05-19T12:33:20.036Z,26.58
2023-05-19T12:35:49.944Z,26.50
2023-05-19T12:38:21.000Z,26.39
2023-05-19T12:40:49.370Z,26.60
2023-05-19T12:43:22.005Z,26.34
2023-05-19T12:45:50.255Z,26.41
2023-05-19T12:48:22.553Z,26.24
2023-05-19T12:50:52.976Z,26.47
2023-05-19T12:53:22.553Z,26.42
2023-05-19T12:55:54.000Z,26.19
2023-05-19T12:58:23.286Z,26.20
2023-05-19T13:00:52.816Z,26.35
2023-05-19T13:03:22.092Z,26.19
2023-05-19T13:05:52.331Z,25.90
2023-05-19T13:08:23.979Z,26.08
2023-05-19T13:10:52.120Z,26.03
2023-05-19T13:13:20.235Z,26.27
2023-05-19T13:15:49.407Z,26.19
2023-05-19T13:18:17.851Z,25.80
2023-05-19T13:20:49.154Z,26.04
2023-05-19T13:23:17.517Z,25.93
2023-05-19T13:25:47.203Z,25.71
2023-05-19T13:28:15.331Z,25.67
2023-05-19T13:30:44.921Z,25.82
2023-05-19T13:33:13.283Z,25.82
2023-05-19T13:35:41.392Z,25.74
2023-05-19T13:38:10.838Z,25.77
2023-05-19T13:40:39.627Z,25.63
2023-05-19T13:43:09.930Z,25.46
2023-05-19T13:45:38.661Z,25.33
2023-05-19T13:48:08.139Z,25.35
2023-05-19T13:50:36.192Z,25.24
2023-05-19T13:53:04.712Z,25.57
2023-05-19T13:55:32.980Z,25.13
2023-05-19T13:58:00.916Z,25.03
2023-05-19T14:00:31.112Z,24.80
2023-05-19T14:03:00.355Z,24.83
2023-05-19T14:05:29.008Z,24.79
2023-05-19T14:07:57.195Z,24.82
2023-05-19T14:10:25.209Z,24.85
2023-05-19T14:15:26.590Z,24.67
2023-05-19T14:17:56.483Z,24.67
2023-05-19T14:20:25.527Z,24.80
2023-05-19T14:22:55.476Z,24.77
2023-05-19T14:25:23.781Z,24.67
2023-05-19T14:27:51.808Z,24.84
2023-05-19T14:30:20.021Z,24.80
2023-05-19T14:32:47.992Z,24.81
2023-05-19T14:35:17.787Z,24.68
2023-05-19T14:37:45.740Z,24.81
2023-05-19T14:40:14.412Z,24.82
2023-05-19T14:42:42.356Z,24.63
2023-05-19T14:45:11.457Z,24.76
2023-05-19T14:47:39.543Z,24.71
2023-05-19T14:50:08.271Z,24.69
2023-05-19T14:52:37.803Z,24.52
2023-05-19T14:55:06.713Z,24.54
2023-05-19T14:57:34.706Z,24.42
2023-05-19T15:00:02.761Z,24.39
2023-05-19T15:02:30.860Z,24.27
2023-05-19T15:05:00.067Z,24.36
2023-05-19T15:07:28.147Z,24.36
2023-05-19T15:09:57.579Z,24.42
2023-05-19T15:12:25.548Z,24.38
2023-05-19T15:14:53.760Z,24.35
2023-05-19T15:17:21.720Z,24.29
2023-05-19T15:19:49.964Z,24.28
2023-05-19T15:22:18.052Z,24.03
2023-05-19T15:24:46.094Z,24.04
2023-05-19T15:27:15.547Z,23.93
2023-05-19T15:32:11.354Z,24.01
2023-05-19T15:34:39.396Z,23.82
2023-05-19T15:37:07.473Z,23.78
2023-05-19T15:39:35.609Z,23.82
2023-05-19T15:42:03.631Z,23.68
2023-05-19T15:44:33.020Z,23.74
2023-05-19T15:47:01.200Z,23.85
2023-05-19T15:49:29.097Z,23.75
2023-05-19T15:51:57.121Z,23.72
2023-05-19T15:54:25.265Z,23.86
2023-05-19T15:56:53.294Z,23.73
2023-05-19T15:59:21.342Z,24.00
2023-05-19T16:01:52.728Z,23.84
2023-05-19T16:04:21.375Z,23.78
2023-05-19T16:06:49.602Z,23.83
2023-05-19T16:09:17.638Z,23.96
2023-05-19T16:11:45.691Z,24.02
2023-05-19T16:14:14.245Z,23.94
2023-05-19T16:16:42.370Z,24.02
2023-05-19T16:19:11.829Z,24.14
2023-05-19T16:21:39.983Z,24.07
2023-05-19T16:24:08.234Z,24.21
2023-05-19T16:26:36.437Z,24.36
2023-05-19T16:29:04.408Z,24.43
2023-05-19T16:31:32.609Z,24.35
2023-05-19T16:34:00.668Z,24.21
2023-05-19T16:36:30.000Z,24.34
2023-05-19T16:38:57.933Z,24.30
2023-05-19T16:41:26.596Z,24.38
2023-05-19T16:43:54.576Z,24.45
2023-05-19T16:46:22.778Z,24.49
2023-05-19T16:48:50.895Z,24.69
2023-05-19T16:51:18.905Z,24.74
2023-05-19T16:53:48.315Z,24.79
2023-05-19T16:56:16.343Z,24.77
2023-05-19T16:58:44.372Z,24.82
2023-05-19T17:01:12.340Z,24.90
2023-05-19T17:03:40.491Z,24.91
2023-05-19T17:06:08.575Z,24.90
2023-05-19T17:08:36.659Z,24.98
2023-05-19T17:11:06.593Z,24.81
2023-05-19T17:13:36.378Z,25.10
2023-05-19T17:16:04.520Z,25.13
2023-05-19T17:18:32.625Z,25.05
2023-05-19T17:21:03.536Z,25.19
2023-05-19T17:23:32.254Z,25.10
2023-05-19T17:26:00.196Z,25.15
2023-05-19T17:28:29.673Z,25.08
2023-05-19T17:30:57.829Z,25.02
2023-05-19T17:33:26.064Z,25.14
2023-05-19T17:35:54.002Z,25.08
2023-05-19T17:38:22.132Z,25.03
2023-05-19T17:40:50.194Z,25.06
2023-05-19T17:43:18.256Z,25.17
2023-05-19T17:45:48.177Z,25.13
2023-05-19T17:48:16.080Z,25.12
2023-05-19T17:50:44.077Z,25.16
2023-05-19T17:53:12.640Z,25.05
2023-05-19T17:55:41.889Z,25.15
2023-05-19T17:58:10.420Z,25.16
2023-05-19T18:00:39.061Z,25.18
2023-05-19T18:03:09.375Z,25.27
2023-05-19T18:05:39.983Z,25.26
2023-05-19T18:08:09.443Z,25.27
2023-05-19T18:10:39.160Z,25.20
2023-05-19T18:13:07.921Z,25.27
2023-05-19T18:15:36.495Z,25.25
2023-05-19T18:18:07.508Z,25.20
2023-05-19T18:20:37.873Z,25.33
2023-05-19T18:23:06.163Z,25.48
2023-05-19T18:25:34.310Z,25.47
2023-05-19T18:28:02.273Z,25.39
2023-05-19T18:30:30.329Z,25.57
2023-05-19T18:33:01.917Z,25.66
2023-05-19T18:35:30.217Z,25.54
2023-05-19T18:37:59.624Z,25.52
2023-05-19T18:40:27.707Z,25.81
2023-05-19T18:42:55.668Z,25.73
2023-05-19T18:45:23.641Z,25.68
2023-05-19T18:47:51.639Z,25.74
2023-05-19T18:50:20.632Z,25.68
2023-05-19T18:52:48.618Z,25.69
2023-05-19T18:55:18.296Z,25.63
2023-05-19T18:57:46.176Z,25.75
2023-05-19T19:00:15.071Z,25.72
2023-05-19T19:02:43.152Z,25.69
2023-05-19T19:05:11.262Z,25.81
2023-05-19T19:07:42.157Z,25.94
2023-05-19T19:10:10.964Z,25.96
2023-05-19T19:12:40.384Z,25.73
2023-05-19T19:15:09.208Z,25.86
2023-05-19T19:17:37.292Z,25.96
2023-05-19T19:20:05.904Z,25.97
2023-05-19T19:22:33.853Z,25.92
2023-05-19T19:25:01.999Z,25.95
2023-05-19T19:27:31.418Z,26.10
2023-05-19T19:30:00.890Z,25.82
2023-05-19T19:32:31.321Z,26.11
2023-05-19T19:34:59.440Z,25.92
2023-05-19T19:37:27.437Z,25.93
2023-05-19T19:39:55.373Z,26.02
2023-05-19T19:42:23.391Z,26.06
2023-05-19T19:44:55.425Z,26.00
2023-05-19T19:47:24.893Z,26.23
2023-05-19T19:49:52.864Z,26.04
2023-05-19T19:52:20.922Z,26.05
2023-05-19T19:54:49.117Z,26.17
2023-05-19T19:57:17.901Z,26.39
2023-05-19T19:59:45.906Z,26.46
2023-05-19T20:02:13.991Z,26.30
2023-05-19T20:04:43.429Z,26.21
2023-05-19T20:07:11.581Z,26.51
2023-05-19T20:09:39.773Z,26.34
2023-05-19T20:12:08.401Z,26.16
2023-05-19T20:14:36.959Z,26.30
2023-05-19T20:17:05.242Z,26.39
2023-05-19T20:19:33.396Z,26.35
2023-05-19T20:22:02.872Z,26.48
2023-05-19T20:24:30.940Z,26.43
2023-05-19T20:26:58.982Z,26.23
2023-05-19T20:29:27.246Z,26.36
2023-05-19T20:31:57.169Z,26.43
2023-05-19T20:34:26.788Z,26.55
2023-05-19T20:36:54.871Z,26.45
2023-05-19T20:39:24.288Z,26.57
2023-05-19T20:41:52.295Z,26.71
2023-05-19T20:44:20.243Z,26.65
2023-05-19T20:46:48.265Z,26.58
2023-05-19T20:49:16.310Z,26.59
2023-05-19T20:51:44.246Z,26.69
2023-05-19T20:54:12.354Z,26.79
2023-05-19T20:56:41.797Z,26.77
2023-05-19T20:59:09.745Z,26.53
2023-05-19T21:01:37.810Z,26.72
2023-05-19T21:04:07.767Z,26.70
2023-05-19T21:06:36.000Z,26.75
2023-05-19T21:09:06.688Z,26.60
2023-05-19T21:11:34.968Z,26.81
2023-05-19T21:14:04.992Z,26.97
2023-05-19T21:16:34.051Z,26.80
2023-05-19T21:19:02.451Z,26.91
2023-05-19T21:21:31.661Z,26.84
2023-05-19T21:23:59.746Z,26.96
2023-05-19T21:26:27.831Z,27.05
2023-05-19T21:28:55.806Z,27.06
2023-05-19T21:31:25.233Z,27.29
2023-05-19T21:33:53.403Z,27.25
2023-05-19T21:36:21.924Z,27.18
2023-05-19T21:38:49.888Z,26.96
2023-05-19T21:41:17.872Z,27.04
2023-05-19T21:43:46.615Z,27.29
2023-05-19T21:46:15.524Z,27.29
2023-05-19T21:48:45.050Z,27.42
2023-05-19T21:51:13.061Z,27.48
2023-05-19T21:53:41.097Z,27.19
2023-05-19T21:56:09.199Z,27.51
2023-05-19T21:58:37.307Z,27.46
2023-05-19T22:01:05.756Z,27.48
2023-05-19T22:03:33.944Z,27.81
2023-05-19T22:06:03.330Z,27.76
2023-05-19T22:08:31.404Z,27.74
2023-05-19T22:10:59.435Z,28.08
2023-05-19T22:13:27.425Z,27.93
2023-05-19T22:15:55.406Z,27.85
2023-05-19T22:18:23.425Z,27.99
2023-05-19T22:20:51.323Z,28.10
2023-05-19T22:23:20.915Z,28.04
2023-05-19T22:25:48.892Z,28.15
2023-05-19T22:28:16.914Z,28.27
2023-05-19T22:30:45.099Z,28.26
2023-05-19T22:33:13.274Z,28.06
2023-05-19T22:35:41.341Z,28.39
2023-05-19T22:38:10.580Z,28.45
2023-05-19T22:40:40.316Z,28.37
2023-05-19T22:43:08.417Z,28.34
2023-05-19T22:45:36.968Z,28.39
2023-05-19T22:48:05.663Z,28.41
2023-05-19T22:50:33.638Z,28.34
2023-05-19T22:53:01.561Z,28.59
2023-05-19T22:55:29.504Z,28.81
2023-05-19T22:57:59.035Z,28.55
2023-05-19T23:00:27.090Z,28.46
2023-05-19T23:02:55.052Z,28.63
2023-05-19T23:05:23.168Z,28.94
2023-05-19T23:07:51.197Z,28.88
2023-05-19T23:10:19.418Z,28.77
2023-05-19T23:12:47.556Z,28.61
2023-05-19T23:15:16.880Z,28.78
2023-05-19T23:17:44.921Z,28.76
2023-05-19T23:20:14.805Z,28.74
2023-05-19T23:22:42.909Z,29.26
2023-05-19T23:25:11.242Z,29.14
2023-05-19T23:27:39.285Z,29.25
2023-05-19T23:30:08.602Z,29.30
2023-05-19T23:32:38.112Z,28.95
2023-05-19T23:35:13.307Z,29.34
2023-05-19T23:37:41.698Z,29.22
2023-05-19T23:40:10.443Z,29.29
2023-05-19T23:42:38.414Z,28.99
2023-05-19T23:45:07.297Z,29.50
2023-05-19T23:47:35.317Z,29.52
2023-05-19T23:50:05.193Z,29.40
2023-05-19T23:52:33.681Z,29.41
2023-05-19T23:55:03.323Z,29.38
2023-05-19T23:57:31.427Z,29.20
